Time;durP1;ratioP1;P1;durP2;ratioP2;P2;SDS_P1;SDS_P2;PMS_P1;PMS_P2;Temp;Humidity;BMP_temperature;BMP_pressure;BME280_temperature;BME280_humidity;BME280_pressure;Samples;Min_cycle;Max_cycle;Signal;HPM_P1;HPM_P2
2021/07/06 00:01:59;;;;;;;11.25;6.00;;;;;;;20.27;84.35;99481.63;1693636;84;21105;-77
2021/07/06 00:04:25;;;;;;;12.43;5.40;;;;;;;20.24;84.21;99472.02;1694038;84;21186;-77
2021/07/06 00:06:52;;;;;;;10.23;6.25;;;;;;;20.21;84.14;99473.63;1696972;83;21097;-78
2021/07/06 00:09:21;;;;;;;8.78;5.72;;;;;;;20.19;84.26;99480.94;1708778;83;21077;-79
2021/07/06 00:11:48;;;;;;;11.68;6.00;;;;;;;20.16;84.63;99485.72;1699556;84;21165;-76
2021/07/06 00:14:15;;;;;;;9.28;5.20;;;;;;;20.12;84.63;99487.80;1708582;83;21029;-78
2021/07/06 00:16:42;;;;;;;9.88;5.58;;;;;;;20.08;84.64;99493.05;1699445;84;21598;-76
2021/07/06 00:19:09;;;;;;;7.20;6.20;;;;;;;20.05;84.89;99496.00;1708920;83;21594;-76
2021/07/06 00:21:37;;;;;;;13.50;6.15;;;;;;;20.00;85.07;99496.40;1698933;84;21074;-77
2021/07/06 00:24:05;;;;;;;8.95;4.92;;;;;;;19.97;85.00;99488.66;1708736;83;21544;-77
2021/07/06 00:26:32;;;;;;;9.03;6.20;;;;;;;19.94;85.01;99493.41;1699315;84;21085;-76
2021/07/06 00:29:00;;;;;;;10.32;5.75;;;;;;;19.88;85.40;99490.78;1708686;83;21057;-76
2021/07/06 00:31:28;;;;;;;7.70;5.65;;;;;;;19.85;85.36;99497.24;1699272;84;21910;-76
2021/07/06 00:33:54;;;;;;;11.08;6.10;;;;;;;19.82;85.41;99501.98;1708729;83;21052;-75
2021/07/06 00:36:21;;;;;;;10.25;5.78;;;;;;;19.77;85.34;99498.37;1699514;84;21156;-77
2021/07/06 00:38:49;;;;;;;7.90;5.50;;;;;;;19.75;85.54;99503.49;1708626;83;21045;-77
2021/07/06 00:41:15;;;;;;;9.90;6.65;;;;;;;19.73;86.04;99502.28;1699341;84;21104;-75
2021/07/06 00:43:42;;;;;;;13.78;6.22;;;;;;;19.66;86.54;99499.24;1708572;83;21121;-76
2021/07/06 00:46:09;;;;;;;12.80;6.65;;;;;;;19.64;86.71;99507.03;1699389;84;21408;-76
2021/07/06 00:48:38;;;;;;;9.13;6.47;;;;;;;19.60;86.90;99504.25;1707521;83;21053;-76
2021/07/06 00:51:05;;;;;;;9.73;5.92;;;;;;;19.56;87.03;99512.19;1671127;85;21093;-76
2021/07/06 00:53:32;;;;;;;8.60;6.20;;;;;;;19.51;87.38;99507.23;1680331;85;21559;-76
2021/07/06 00:55:58;;;;;;;10.20;5.95;;;;;;;19.47;87.30;99506.64;1671245;85;21176;-77
2021/07/06 00:58:26;;;;;;;8.10;5.90;;;;;;;19.45;87.52;99499.73;1684390;83;21587;-78
2021/07/06 01:00:54;;;;;;;11.15;6.17;;;;;;;19.42;87.64;99507.52;1709242;83;21140;-79
2021/07/06 01:03:22;;;;;;;9.85;4.70;;;;;;;19.38;87.89;99500.73;1709125;83;21076;-80
2021/07/06 01:05:49;;;;;;;11.33;6.28;;;;;;;19.34;87.84;99501.95;1708977;83;21558;-79
2021/07/06 01:08:17;;;;;;;9.20;5.75;;;;;;;19.31;88.03;99510.73;1698258;84;21093;-77
2021/07/06 01:10:45;;;;;;;8.30;5.60;;;;;;;19.27;88.26;99513.63;1698095;84;21045;-79
2021/07/06 01:13:12;;;;;;;9.58;5.33;;;;;;;19.25;88.30;99517.41;1698249;84;21080;-79
2021/07/06 01:15:39;;;;;;;10.58;6.03;;;;;;;19.21;88.29;99515.95;1698423;84;21037;-79
2021/07/06 01:18:10;;;;;;;10.85;6.40;;;;;;;19.18;88.20;99514.89;1698284;84;21129;-80
2021/07/06 01:20:39;;;;;;;;;;;;;;;19.16;88.69;99516.83;1700614;84;21144;-80
2021/07/06 01:23:06;;;;;;;10.95;7.03;;;;;;;19.07;88.57;99513.96;1698517;84;20220;-80
2021/07/06 01:25:35;;;;;;;12.05;6.60;;;;;;;19.07;89.08;99524.64;1698628;84;21140;-80
2021/07/06 01:28:03;;;;;;;11.03;6.55;;;;;;;19.05;89.22;99531.92;1698742;84;21046;-81
2021/07/06 01:30:30;;;;;;;11.53;6.85;;;;;;;19.02;89.61;99538.82;1698801;84;21160;-80
2021/07/06 01:32:57;;;;;;;13.45;6.65;;;;;;;19.00;89.71;99535.92;1698660;84;21995;-79
2021/07/06 01:35:24;;;;;;;10.80;6.92;;;;;;;18.98;90.08;99541.86;1698504;84;21057;-79
2021/07/06 01:37:59;;;;;;;15.20;6.85;;;;;;;18.94;90.34;99541.28;1698470;84;21568;-77
2021/07/06 01:40:28;;;;;;;7.92;5.58;;;;;;;18.91;90.26;99550.87;1698407;84;21105;-77
2021/07/06 01:42:55;;;;;;;10.45;6.90;;;;;;;18.86;90.43;99547.71;1698424;84;21068;-76
2021/07/06 01:45:26;;;;;;;12.45;8.10;;;;;;;18.85;90.28;99554.03;1698579;84;21561;-78
2021/07/06 01:47:58;;;;;;;15.20;6.77;;;;;;;18.83;90.46;99549.30;1698937;84;20998;-75
2021/07/06 01:50:34;;;;;;;9.03;5.22;;;;;;;18.81;90.88;99549.41;1698445;84;21073;-77
2021/07/06 01:53:04;;;;;;;9.20;5.80;;;;;;;18.79;90.71;99551.84;1698734;84;21497;-77
2021/07/06 01:55:35;;;;;;;8.23;6.40;;;;;;;18.76;90.86;99556.07;1685454;84;21076;-75
2021/07/06 01:58:03;;;;;;;;;;;;;;;18.75;90.94;99561.91;1707381;84;22237;-76
2021/07/06 02:00:32;;;;;;;9.88;6.95;;;;;;;18.74;91.86;99560.19;1704227;84;20212;-76
2021/07/06 02:03:00;;;;;;;10.30;7.50;;;;;;;18.70;91.91;99558.73;1731331;82;21125;-77
2021/07/06 02:05:37;;;;;;;13.93;7.00;;;;;;;18.71;91.75;99555.60;1733591;82;21098;-76
2021/07/06 02:08:07;;;;;;;12.60;7.12;;;;;;;18.71;91.83;99567.60;1744758;81;21509;-75
2021/07/06 02:10:34;;;;;;;12.40;7.40;;;;;;;18.70;91.71;99567.22;1747663;82;21060;-74
2021/07/06 02:13:02;;;;;;;9.20;6.62;;;;;;;18.70;91.93;99577.40;1719880;82;21053;-76
2021/07/06 02:15:31;;;;;;;11.22;6.42;;;;;;;18.71;91.99;99575.61;1747646;82;21025;-77
2021/07/06 02:17:58;;;;;;;10.60;6.30;;;;;;;18.71;91.75;99576.94;1747516;82;22274;-76
2021/07/06 02:20:25;;;;;;;10.80;6.80;;;;;;;18.71;91.99;99579.61;1747519;82;21088;-77
2021/07/06 02:22:52;;;;;;;8.70;6.45;;;;;;;18.74;92.03;99578.02;1747690;82;21096;-77
2021/07/06 02:25:20;;;;;;;10.10;6.80;;;;;;;18.76;92.10;99578.75;1747551;82;21010;-78
2021/07/06 02:27:47;;;;;;;8.53;5.80;;;;;;;18.80;91.97;99584.23;1747836;82;21005;-79
2021/07/06 02:30:19;;;;;;;8.33;6.05;;;;;;;18.83;91.34;99591.49;1747604;82;21564;-77
2021/07/06 02:32:47;;;;;;;12.13;6.20;;;;;;;18.86;91.41;99586.39;1747830;82;21089;-76
2021/07/06 02:35:14;;;;;;;11.83;7.15;;;;;;;18.91;90.86;99588.23;1747748;82;21111;-78
2021/07/06 02:37:41;;;;;;;9.38;6.42;;;;;;;18.96;90.74;99594.04;1747735;82;21597;-76
2021/07/06 02:40:10;;;;;;;8.88;6.78;;;;;;;19.01;90.96;99589.17;1747581;82;21037;-75
2021/07/06 02:42:37;;;;;;;10.03;6.75;;;;;;;19.08;90.90;99595.70;1747601;82;21596;-76
2021/07/06 02:45:08;;;;;;;12.30;6.97;;;;;;;19.13;90.75;99586.48;1747961;82;21124;-77
2021/07/06 02:47:39;;;;;;;7.40;6.15;;;;;;;19.19;90.41;99588.67;1730021;82;21975;-75
2021/07/06 02:50:08;;;;;;;9.93;6.33;;;;;;;19.25;90.26;99585.47;1717660;82;21033;-77
2021/07/06 02:52:37;;;;;;;9.13;6.55;;;;;;;19.31;89.88;99582.31;1718153;83;21077;-78
2021/07/06 02:55:06;;;;;;;8.13;6.17;;;;;;;19.39;89.68;99587.85;1717831;83;21041;-77
2021/07/06 02:57:39;;;;;;;11.20;5.90;;;;;;;19.45;89.38;99587.36;1718386;83;21070;-77
2021/07/06 03:00:16;;;;;;;10.88;5.85;;;;;;;19.55;88.88;99593.27;1741732;82;21524;-78
2021/07/06 03:02:46;;;;;;;14.00;6.37;;;;;;;19.65;88.24;99592.88;1717729;83;21029;-82
2021/07/06 03:05:14;;;;;;;;;;;;;;;19.74;87.70;99594.82;1720873;83;21040;-82
2021/07/06 03:07:41;;;;;;;10.05;5.95;;;;;;;19.84;87.30;99593.05;1718275;83;20193;-81
2021/07/06 03:10:21;;;;;;;10.55;6.00;;;;;;;19.94;86.52;99598.47;1719230;83;20982;-79
2021/07/06 03:12:48;;;;;;;8.38;6.05;;;;;;;20.03;85.95;99602.19;1719102;83;21504;-80
2021/07/06 03:15:18;;;;;;;14.07;5.80;;;;;;;20.13;85.44;99595.10;1718784;83;22215;-79
2021/07/06 03:17:46;;;;;;;8.35;5.45;;;;;;;20.23;85.08;99593.32;1737914;82;21064;-80
2021/07/06 03:20:15;;;;;;;10.65;6.25;;;;;;;20.35;84.42;99602.61;1745944;82;21133;-78
2021/07/06 03:22:41;;;;;;;7.83;5.85;;;;;;;20.48;83.98;99608.59;1734589;82;21064;-79
2021/07/06 03:25:12;;;;;;;11.10;5.97;;;;;;;20.61;83.19;99605.22;1741828;82;21776;-79
2021/07/06 03:27:39;;;;;;;12.18;6.30;;;;;;;20.70;82.69;99604.41;1730629;82;21054;-78
2021/07/06 03:30:12;;;;;;;10.55;5.95;;;;;;;20.83;81.57;99606.88;1722069;82;21588;-84
2021/07/06 03:32:39;;;;;;;7.00;5.45;;;;;;;20.92;81.22;99613.25;1722672;82;21607;-81
2021/07/06 03:35:07;;;;;;;8.38;5.03;;;;;;;21.05;80.70;99616.54;1723946;82;21068;-83
2021/07/06 03:37:35;;;;;;;8.15;5.30;;;;;;;21.21;80.19;99617.83;1727970;82;22076;-83
2021/07/06 03:40:07;;;;;;;10.00;5.95;;;;;;;21.36;79.49;99624.49;1719182;83;21081;-80
2021/07/06 03:42:34;;;;;;;8.73;5.28;;;;;;;21.49;78.58;99614.41;1719446;83;21080;-81
2021/07/06 03:45:02;;;;;;;7.85;5.47;;;;;;;21.61;78.08;99615.61;1725249;82;21049;-82
2021/07/06 03:47:30;;;;;;;8.95;5.40;;;;;;;21.74;77.26;99614.81;1731248;82;21624;-82
2021/07/06 03:49:57;;;;;;;10.85;5.65;;;;;;;21.86;76.97;99624.42;1718041;83;21151;-81
2021/07/06 03:52:24;;;;;;;12.68;5.65;;;;;;;21.98;76.79;99620.60;1718340;82;21571;-82
2021/07/06 03:54:51;;;;;;;8.48;6.62;;;;;;;22.12;76.00;99616.63;1731231;82;21009;-83
2021/07/06 03:57:28;;;;;;;11.33;5.70;;;;;;;22.22;75.09;99616.64;1731817;82;21097;-84
2021/07/06 03:59:47;;;;;;;12.47;5.67;;;;;;;22.29;75.03;99621.81;1734308;82;21611;-83
2021/07/06 04:02:14;;;;;;;10.25;5.95;;;;;;;22.37;74.50;99620.58;1731052;82;21179;-83
2021/07/06 04:04:41;;;;;;;7.47;5.53;;;;;;;22.45;74.28;99623.02;1723779;82;21050;-83
2021/07/06 04:07:08;;;;;;;7.17;5.72;;;;;;;22.55;73.99;99627.88;1743804;81;21041;-85
2021/07/06 04:09:37;;;;;;;7.87;5.37;;;;;;;22.69;73.53;99634.11;1717690;82;21038;-82
2021/07/06 04:12:05;;;;;;;9.55;5.60;;;;;;;22.88;72.81;99626.98;1713880;82;21533;-77
2021/07/06 04:14:31;;;;;;;9.78;6.10;;;;;;;23.03;71.78;99626.87;1703817;82;21074;-79
2021/07/06 04:17:00;;;;;;;10.80;5.42;;;;;;;23.18;71.08;99627.20;1713234;82;21094;-75
2021/07/06 04:19:29;;;;;;;8.93;5.78;;;;;;;23.36;70.85;99627.25;1703647;82;21556;-75
2021/07/06 04:21:57;;;;;;;9.75;5.53;;;;;;;23.56;70.01;99620.75;1702426;82;22157;-76
2021/07/06 04:24:24;;;;;;;9.35;6.47;;;;;;;23.77;69.32;99619.13;1705017;82;21363;-75
2021/07/06 04:26:50;;;;;;;12.18;6.22;;;;;;;23.86;68.06;99620.05;1703233;82;21104;-77
2021/07/06 04:29:18;;;;;;;9.25;5.62;;;;;;;23.82;67.80;99628.08;1706581;82;21124;-76
2021/07/06 04:31:45;;;;;;;8.58;5.97;;;;;;;23.60;68.54;99630.20;1709769;82;21098;-78
2021/07/06 04:34:12;;;;;;;9.98;6.00;;;;;;;23.41;69.21;99637.04;1709349;82;21601;-76
2021/07/06 04:36:39;;;;;;;16.73;6.72;;;;;;;23.28;69.82;99627.14;1693144;81;21131;-77
2021/07/06 04:39:06;;;;;;;10.88;6.47;;;;;;;23.17;70.52;99633.08;1706310;83;21631;-77
2021/07/06 04:41:33;;;;;;;15.58;6.55;;;;;;;23.15;70.15;99639.09;1708416;82;21101;-77
2021/07/06 04:44:00;;;;;;;11.57;6.33;;;;;;;23.17;70.93;99642.48;1708800;82;21089;-76
2021/07/06 04:46:27;;;;;;;11.25;6.22;;;;;;;23.15;71.14;99640.44;1683666;83;21129;-76
2021/07/06 04:48:54;;;;;;;10.10;6.42;;;;;;;23.09;71.31;99641.03;1692609;82;21151;-77
2021/07/06 04:51:20;;;;;;;11.53;5.95;;;;;;;23.00;71.87;99643.27;1694951;83;21460;-77
2021/07/06 04:53:47;;;;;;;12.58;6.85;;;;;;;22.95;72.52;99642.84;1679864;82;21226;-76
2021/07/06 04:56:14;;;;;;;9.43;5.97;;;;;;;22.99;72.66;99649.64;1679727;83;21183;-77
2021/07/06 04:58:41;;;;;;;9.25;6.05;;;;;;;23.06;72.20;99642.69;1691862;82;21600;-76
2021/07/06 05:01:09;;;;;;;25.52;6.28;;;;;;;23.18;72.37;99641.98;1689726;83;21096;-77
2021/07/06 05:03:37;;;;;;;10.90;5.97;;;;;;;23.32;71.54;99643.31;1686848;83;21109;-77
2021/07/06 05:06:04;;;;;;;8.85;5.65;;;;;;;23.38;71.12;99636.84;1681011;83;21160;-76
2021/07/06 05:08:31;;;;;;;10.23;6.37;;;;;;;23.54;70.37;99646.92;1691121;82;21085;-77
2021/07/06 05:10:58;;;;;;;13.48;6.70;;;;;;;23.71;70.08;99653.30;1717160;82;21073;-76
2021/07/06 05:13:25;;;;;;;13.48;6.20;;;;;;;23.84;69.23;99644.90;1697846;82;21159;-78
2021/07/06 05:15:52;;;;;;;8.70;5.85;;;;;;;24.04;68.77;99642.87;1722125;82;21580;-76
2021/07/06 05:18:20;;;;;;;11.25;7.35;;;;;;;24.34;68.24;99634.89;1702845;82;21082;-77
2021/07/06 05:20:47;;;;;;;7.65;6.05;;;;;;;24.68;66.46;99635.45;1707921;82;21569;-77
2021/07/06 05:23:16;;;;;;;13.68;6.35;;;;;;;24.96;66.05;99635.25;1703043;82;21105;-77
2021/07/06 05:25:43;;;;;;;8.15;6.37;;;;;;;25.38;64.47;99637.14;1708105;82;21018;-76
2021/07/06 05:28:09;;;;;;;12.63;6.30;;;;;;;25.69;62.27;99636.84;1699144;82;21652;-85
2021/07/06 05:30:39;;;;;;;12.23;6.75;;;;;;;25.97;61.22;99631.17;1711734;82;21066;-84
2021/07/06 05:33:06;;;;;;;15.03;6.50;;;;;;;26.16;61.04;99625.97;1712416;82;21032;-85
2021/07/06 05:35:33;;;;;;;8.53;5.85;;;;;;;26.43;60.86;99624.72;1703345;82;21046;-86
2021/07/06 05:38:02;;;;;;;8.70;6.45;;;;;;;26.83;59.63;99627.03;1712697;82;21616;-83
2021/07/06 05:40:30;;;;;;;18.05;7.20;;;;;;;27.14;58.74;99623.00;1704815;82;21542;-86
2021/07/06 05:42:57;;;;;;;10.15;6.15;;;;;;;27.26;57.79;99628.89;1707462;82;21041;-83
2021/07/06 05:45:24;;;;;;;14.43;6.42;;;;;;;27.30;57.75;99628.88;1733090;82;21525;-84
2021/07/06 05:47:52;;;;;;;9.70;6.05;;;;;;;27.49;56.83;99630.80;1733778;82;21019;-84
2021/07/06 05:50:19;;;;;;;10.63;5.92;;;;;;;27.66;56.38;99624.27;1725157;82;21045;-87
2021/07/06 05:52:45;;;;;;;10.58;6.53;;;;;;;27.85;55.17;99622.14;1707700;82;21511;-85
2021/07/06 05:55:13;;;;;;;6.50;5.62;;;;;;;27.85;54.93;99629.73;1733826;82;21046;-84
2021/07/06 05:57:43;;;;;;;11.70;6.60;;;;;;;27.53;55.11;99629.42;1716625;82;21081;-85
2021/07/06 06:00:11;;;;;;;10.90;6.55;;;;;;;27.36;56.37;99634.94;1729346;82;21023;-86
2021/07/06 06:02:38;;;;;;;12.43;6.35;;;;;;;27.34;57.02;99631.56;1719084;81;21596;-81
2021/07/06 06:05:06;;;;;;;10.88;6.65;;;;;;;27.30;56.51;99635.63;1704589;84;21152;-78
2021/07/06 06:07:39;;;;;;;9.40;6.92;;;;;;;27.13;57.16;99632.66;1705300;82;21113;-78
2021/07/06 06:10:08;;;;;;;10.08;6.70;;;;;;;26.94;57.52;99632.55;1739481;81;21072;-78
2021/07/06 06:12:37;;;;;;;12.53;7.03;;;;;;;26.94;58.07;99643.36;1733294;82;21188;-81
2021/07/06 06:15:05;;;;;;;10.48;6.70;;;;;;;26.97;57.76;99641.67;1733923;82;21057;-81
2021/07/06 06:17:34;;;;;;;10.93;6.33;;;;;;;27.25;57.69;99642.09;1721548;82;21274;-80
2021/07/06 06:20:01;;;;;;;15.05;7.03;;;;;;;27.52;56.72;99642.11;1747149;82;21029;-80
2021/07/06 06:22:28;;;;;;;13.43;6.87;;;;;;;27.77;55.98;99641.44;1747476;82;21077;-81
2021/07/06 06:24:54;;;;;;;13.43;6.80;;;;;;;27.80;55.78;99641.07;1747265;82;21061;-82
2021/07/06 06:27:21;;;;;;;15.18;7.28;;;;;;;27.93;55.61;99642.35;1747492;82;21025;-81
2021/07/06 06:29:48;;;;;;;10.15;6.58;;;;;;;28.05;55.19;99644.98;1747419;82;22222;-80
2021/07/06 06:32:16;;;;;;;10.10;5.60;;;;;;;28.19;54.39;99648.23;1738333;80;21532;-81
2021/07/06 06:34:45;;;;;;;10.78;7.12;;;;;;;28.45;53.42;99651.88;1737892;82;21064;-81
2021/07/06 06:37:12;;;;;;;9.05;6.20;;;;;;;28.68;52.96;99652.88;1742073;82;21548;-81
2021/07/06 06:39:40;;;;;;;11.08;6.20;;;;;;;28.66;53.52;99649.83;1739672;82;21045;-80
2021/07/06 06:42:07;;;;;;;12.70;6.90;;;;;;;28.69;53.24;99645.07;1734531;82;22186;-80
2021/07/06 06:44:35;;;;;;;12.00;6.60;;;;;;;28.81;52.76;99647.66;1735386;82;21063;-80
2021/07/06 06:47:05;;;;;;;7.92;5.87;;;;;;;28.98;50.96;99651.02;1714677;82;21074;-81
2021/07/06 06:49:33;;;;;;;11.18;6.47;;;;;;;29.35;51.53;99650.05;1724212;82;21066;-81
2021/07/06 06:52:00;;;;;;;10.03;5.97;;;;;;;29.74;50.74;99651.56;1733003;82;21082;-81
2021/07/06 06:54:27;;;;;;;11.90;6.00;;;;;;;30.03;49.86;99655.20;1728380;82;21139;-79
2021/07/06 06:56:55;;;;;;;9.80;6.35;;;;;;;30.17;49.62;99652.09;1732058;82;21538;-80
2021/07/06 06:59:22;;;;;;;9.15;6.33;;;;;;;30.52;48.79;99651.13;1726078;82;21015;-81
2021/07/06 07:01:49;;;;;;;8.53;6.17;;;;;;;30.79;48.11;99649.13;1737935;82;21091;-81
2021/07/06 07:04:16;;;;;;;7.12;5.40;;;;;;;30.91;47.48;99653.81;1726920;82;21050;-79
2021/07/06 07:06:43;;;;;;;9.28;6.37;;;;;;;30.93;47.19;99649.02;1730415;82;21132;-80
2021/07/06 07:09:12;;;;;;;15.03;6.97;;;;;;;30.88;47.26;99645.23;1732840;81;21082;-80
2021/07/06 07:11:40;;;;;;;7.87;6.20;;;;;;;30.79;47.39;99638.25;1743538;81;21088;-79
2021/07/06 07:14:09;;;;;;;10.20;5.87;;;;;;;30.69;47.51;99644.89;1738913;81;21105;-80
2021/07/06 07:16:38;;;;;;;9.18;5.65;;;;;;;30.64;47.07;99645.98;1739043;81;21023;-81
2021/07/06 07:19:05;;;;;;;7.90;5.62;;;;;;;30.57;47.61;99643.73;1748417;81;21533;-80
2021/07/06 07:23:24;;;;;;;15.10;6.65;;;;;;;30.42;48.39;99647.10;1782785;79;22818;-80
2021/07/06 07:25:52;;;;;;;15.38;6.97;;;;;;;30.22;48.51;99646.38;1725482;81;21112;-80
2021/07/06 07:28:20;;;;;;;13.08;6.80;;;;;;;29.98;48.65;99646.77;1720260;82;21886;-79
2021/07/06 07:30:47;;;;;;;9.63;6.47;;;;;;;29.87;49.32;99655.78;1716483;82;21116;-81
2021/07/06 07:33:14;;;;;;;11.65;6.72;;;;;;;29.66;49.57;99650.31;1742445;82;21556;-81
2021/07/06 07:35:41;;;;;;;10.80;5.03;;;;;;;29.54;49.70;99650.47;1728285;82;21022;-85
2021/07/06 07:38:08;;;;;;;10.23;5.90;;;;;;;29.74;49.84;99656.98;1735263;82;21754;-86
2021/07/06 07:40:35;;;;;;;10.55;6.53;;;;;;;29.74;49.84;99656.98;1741824;82;21479;-84
2021/07/06 07:43:06;;;;;;;9.93;6.37;;;;;;;29.79;49.52;99662.67;1732083;82;21061;-86
2021/07/06 07:45:31;;;;;;;9.30;6.28;;;;;;;29.81;48.93;99658.42;1719624;82;21049;-84
2021/07/06 07:47:58;;;;;;;10.75;6.50;;;;;;;30.18;48.94;99660.02;1730989;82;21089;-81
2021/07/06 07:50:25;;;;;;;10.70;5.85;;;;;;;30.18;48.94;99660.02;1738668;82;21013;-81
2021/07/06 07:52:52;;;;;;;13.75;6.70;;;;;;;30.45;48.96;99660.28;1724197;82;21502;-82
2021/07/06 07:55:19;;;;;;;11.18;5.67;;;;;;;30.98;47.88;99655.20;1743745;82;21016;-88
2021/07/06 07:57:46;;;;;;;13.10;5.87;;;;;;;31.49;46.33;99656.70;1741606;81;21069;-81
2021/07/06 08:00:15;;;;;;;11.85;5.85;;;;;;;31.87;45.75;99663.83;1703436;82;21100;-86
2021/07/06 08:02:43;;;;;;;9.93;5.33;;;;;;;32.25;43.96;99657.80;1726681;82;21504;-87
2021/07/06 08:05:10;;;;;;;8.90;4.92;;;;;;;32.38;43.84;99649.63;1734140;82;21121;-86
2021/07/06 08:19:22;;;;;;;11.45;5.15;;;;;;;33.00;41.24;99661.08;1870220;76;22711;-86
2021/07/06 08:21:51;;;;;;;7.65;5.10;;;;;;;32.81;41.34;99664.18;1837024;77;20965;-87
2021/07/06 08:24:19;;;;;;;9.77;5.30;;;;;;;32.80;41.79;99665.22;1841640;77;21542;-85
2021/07/06 08:26:46;;;;;;;14.85;5.30;;;;;;;32.70;42.27;99666.72;1810917;78;21218;-84
2021/07/06 08:29:13;;;;;;;11.73;4.92;;;;;;;32.59;43.00;99667.66;1791696;78;21712;-89
2021/07/06 08:31:42;;;;;;;14.18;5.70;;;;;;;32.71;42.63;99665.13;1758520;79;21749;-87
2021/07/06 08:34:09;;;;;;;9.45;5.10;;;;;;;33.07;40.83;99666.55;1772283;79;21057;-83
2021/07/06 08:36:37;;;;;;;13.70;5.70;;;;;;;32.91;40.86;99673.80;1764879;81;21143;-83
2021/07/06 08:39:04;;;;;;;10.38;5.47;;;;;;;32.35;41.94;99673.22;1765293;80;21568;-80
2021/07/06 08:41:31;;;;;;;7.20;4.58;;;;;;;32.06;43.11;99674.98;1765282;81;21121;-82
2021/07/06 08:43:59;;;;;;;21.05;5.17;;;;;;;31.98;42.97;99676.87;1765149;79;21121;-80
2021/07/06 08:46:28;;;;;;;7.58;5.67;;;;;;;31.91;43.41;99677.34;1765588;80;21023;-83
2021/07/06 08:48:55;;;;;;;12.33;4.95;;;;;;;31.84;43.53;99671.05;1765394;81;21456;-86
2021/07/06 08:51:22;;;;;;;9.08;5.50;;;;;;;31.88;43.76;99665.48;1765586;81;21077;-85
2021/07/06 08:53:49;;;;;;;11.90;5.12;;;;;;;32.20;43.54;99673.94;1766478;79;21074;-87
2021/07/06 08:56:16;;;;;;;10.28;5.58;;;;;;;32.39;42.12;99663.59;1766244;81;21616;-85
2021/07/06 08:58:45;;;;;;;13.80;5.30;;;;;;;32.23;43.19;99666.70;1766211;81;21347;-80
2021/07/06 09:01:14;;;;;;;9.28;5.35;;;;;;;32.04;43.27;99670.27;1766132;80;22131;-82
2021/07/06 09:04:01;;;;;;;9.60;4.47;;;;;;;31.97;44.46;99680.62;1766089;81;21071;-81
2021/07/06 09:06:33;;;;;;;6.72;4.92;;;;;;;32.13;43.37;99677.19;1765796;81;21711;-82
2021/07/06 09:09:18;;;;;;;12.25;5.00;;;;;;;32.42;43.18;99671.00;1766357;79;21061;-83
2021/07/06 09:11:51;;;;;;;15.40;5.05;;;;;;;32.70;42.04;99666.19;1767186;81;21053;-82
2021/07/06 09:14:20;;;;;;;7.03;4.72;;;;;;;32.51;41.71;99672.48;1768332;81;21206;-84
2021/07/06 09:16:50;;;;;;;6.55;4.62;;;;;;;32.45;41.80;99670.59;1760515;81;21678;-86
2021/07/06 09:19:22;;;;;;;14.45;4.87;;;;;;;32.33;42.57;99676.67;1753140;81;21090;-85
2021/07/06 09:22:11;;;;;;;8.65;4.03;;;;;;;32.36;43.00;99670.80;1718584;82;21113;-82
2021/07/06 09:24:39;;;;;;;8.00;4.22;;;;;;;32.60;41.96;99679.40;1749176;81;20988;-80
2021/07/06 09:27:35;;;;;;;9.75;4.28;;;;;;;32.67;40.74;99674.80;1740564;82;21163;-80
2021/07/06 09:30:17;;;;;;;9.50;4.78;;;;;;;32.40;41.31;99681.59;1736798;82;21057;-81
2021/07/06 09:32:56;;;;;;;6.47;4.55;;;;;;;32.04;41.86;99673.82;1750617;80;21164;-81
2021/07/06 09:35:29;;;;;;;11.45;4.70;;;;;;;31.83;42.89;99681.61;1756665;81;21036;-83
2021/07/06 09:37:59;;;;;;;8.48;4.15;;;;;;;31.84;43.78;99680.59;1755833;81;22148;-79
2021/07/06 09:40:33;;;;;;;;;;;;;;;32.14;42.51;99682.94;1758256;81;21137;-79
2021/07/06 09:43:31;;;;;;;7.47;4.70;;;;;;;32.53;42.23;99685.38;1754734;81;20456;-79
2021/07/06 09:46:09;;;;;;;11.53;4.72;;;;;;;32.68;41.29;99683.81;1753823;81;20989;-80
2021/07/06 09:48:43;;;;;;;10.80;4.50;;;;;;;32.43;41.27;99689.04;1743500;81;21104;-82
2021/07/06 09:51:17;;;;;;;10.82;4.72;;;;;;;32.22;41.85;99692.28;1746296;81;26475;-84
2021/07/06 09:53:51;;;;;;;10.18;4.12;;;;;;;32.21;42.19;99685.67;1739229;81;21531;-79
2021/07/06 09:56:22;;;;;;;7.35;4.40;;;;;;;32.60;41.83;99673.95;1742578;81;21075;-84
2021/07/06 09:59:02;;;;;;;6.17;4.12;;;;;;;33.08;41.15;99679.13;1743728;81;21079;-79
2021/07/06 10:01:30;;;;;;;;;;;;;;;33.30;39.19;99681.58;1744663;81;21677;-85
2021/07/06 10:03:58;;;;;;;5.20;4.03;;;;;;;33.18;40.18;99679.52;1742875;81;20138;-90
2021/07/06 10:06:29;;;;;;;9.63;4.20;;;;;;;33.21;39.71;99682.34;1750519;81;21815;-86
2021/07/06 10:08:57;;;;;;;15.63;4.60;;;;;;;32.93;40.13;99692.16;1756541;80;21027;-90
2021/07/06 10:11:24;;;;;;;11.53;3.85;;;;;;;32.60;41.00;99688.44;1746729;81;21024;-88
2021/07/06 10:13:55;;;;;;;6.47;4.00;;;;;;;32.20;41.89;99694.38;1747386;81;21067;-90
2021/07/06 10:16:22;;;;;;;7.67;4.10;;;;;;;31.90;42.53;99687.91;1753908;81;21712;-92
2021/07/06 10:18:50;;;;;;;6.65;4.00;;;;;;;31.81;42.74;99689.14;1751920;81;21392;-88
2021/07/06 10:21:17;;;;;;;14.13;4.67;;;;;;;31.91;42.75;99692.33;1766938;81;20964;-90
2021/07/06 10:23:46;;;;;;;6.40;4.12;;;;;;;31.96;43.48;99695.30;1766443;81;21610;-93
2021/07/06 10:26:14;;;;;;;10.32;4.58;;;;;;;32.05;43.04;99689.63;1712680;81;21076;-86
2021/07/06 10:28:43;;;;;;;;;;;;;;;32.18;42.40;99691.02;1763962;80;21110;-82
2021/07/06 10:31:15;;;;;;;10.80;4.92;;;;;;;32.17;42.45;99688.82;1706738;80;22770;-81
2021/07/06 10:33:43;;;;;;;9.63;4.10;;;;;;;32.24;42.53;99691.55;1737042;80;21063;-79
2021/07/06 10:36:12;;;;;;;8.63;4.50;;;;;;;32.10;42.36;99692.59;1762735;80;21092;-79
2021/07/06 10:38:58;;;;;;;14.28;5.33;;;;;;;31.76;43.16;99698.45;1762046;80;21043;-79
2021/07/06 10:41:40;;;;;;;9.40;5.15;;;;;;;31.32;44.77;99692.94;1764021;80;21080;-78
2021/07/06 10:44:07;;;;;;;6.72;4.62;;;;;;;31.08;45.72;99695.13;1767099;80;21106;-80
2021/07/06 10:46:43;;;;;;;9.55;4.80;;;;;;;31.08;46.33;99699.20;1768457;80;21038;-81
2021/07/06 10:49:27;;;;;;;13.58;4.45;;;;;;;31.27;45.97;99696.79;1757614;80;21100;-82
2021/07/06 10:51:55;;;;;;;8.25;4.60;;;;;;;31.51;44.82;99699.00;1757741;80;21108;-78
2021/07/06 10:54:26;;;;;;;11.95;4.75;;;;;;;31.40;44.36;99700.91;1767878;80;21087;-79
2021/07/06 10:57:11;;;;;;;8.35;4.60;;;;;;;31.09;45.79;99706.31;1766763;80;21244;-78
2021/07/06 10:59:39;;;;;;;5.53;3.60;;;;;;;30.72;46.24;99709.70;1766057;80;21103;-79
2021/07/06 11:02:28;;;;;;;10.95;5.08;;;;;;;30.52;46.43;99705.99;1767600;80;21035;-77
2021/07/06 11:04:57;;;;;;;6.22;4.03;;;;;;;30.64;46.54;99712.56;1749134;81;21267;-79
2021/07/06 11:07:38;;;;;;;9.05;4.53;;;;;;;30.76;46.17;99712.02;1767274;79;21066;-80
2021/07/06 11:10:08;;;;;;;8.40;4.35;;;;;;;30.84;46.17;99705.08;1763440;81;22190;-80
2021/07/06 11:12:48;;;;;;;11.35;4.45;;;;;;;30.96;45.85;99713.02;1763552;81;21339;-81
2021/07/06 11:15:19;;;;;;;9.78;3.85;;;;;;;30.88;46.65;99709.95;1764252;80;21016;-79
2021/07/06 11:18:01;;;;;;;9.73;5.70;;;;;;;30.93;46.04;99708.00;1762216;80;22934;-80
2021/07/06 11:20:44;;;;;;;8.45;4.85;;;;;;;31.12;45.29;99701.82;1757025;81;21103;-82
2021/07/06 11:23:32;;;;;;;12.20;4.33;;;;;;;31.36;44.97;99706.45;1762834;81;21534;-81
2021/07/06 11:26:07;;;;;;;8.00;4.12;;;;;;;31.14;44.76;99718.78;1763310;81;21013;-81
2021/07/06 11:28:49;;;;;;;13.70;4.80;;;;;;;30.79;45.92;99725.23;1762547;81;21068;-83
2021/07/06 11:31:19;;;;;;;10.82;5.03;;;;;;;30.40;47.00;99733.38;1757306;80;21630;-80
2021/07/06 11:33:47;;;;;;;14.55;4.72;;;;;;;30.08;48.06;99721.97;1766962;81;21106;-81
2021/07/06 11:36:22;;;;;;;7.75;4.40;;;;;;;30.05;48.13;99723.20;1764180;81;21163;-80
2021/07/06 11:38:51;;;;;;;11.15;4.28;;;;;;;30.01;47.74;99722.42;1763956;81;21108;-81
2021/07/06 11:41:20;;;;;;;8.28;4.12;;;;;;;29.93;46.91;99725.25;1764417;81;21040;-82
2021/07/06 11:43:48;;;;;;;11.53;4.78;;;;;;;29.78;47.86;99720.72;1764848;81;21127;-82
2021/07/06 11:46:18;;;;;;;8.95;4.20;;;;;;;29.78;47.86;99720.72;1765447;81;21645;-82
2021/07/06 11:48:48;;;;;;;6.30;3.70;;;;;;;29.75;46.87;99729.25;1764495;81;21084;-81
2021/07/06 11:51:18;;;;;;;8.60;4.08;;;;;;;29.91;47.27;99722.75;1764197;79;21561;-80
2021/07/06 11:53:59;;;;;;;7.83;4.30;;;;;;;30.18;46.35;99725.72;1787938;80;21036;-81
2021/07/06 11:56:28;;;;;;;8.40;4.30;;;;;;;30.18;46.79;99731.98;1786791;80;21155;-82